Time;durP1;ratioP1;P1;durP2;ratioP2;P2;SDS_P1;SDS_P2;PMS_P1;PMS_P2;Temp;Humidity;BMP_temperature;BMP_pressure;BME280_temperature;BME280_humidity;BME280_pressure;Samples;Min_cycle;Max_cycle;Signal;HPM_P1;HPM_P2
2022/07/17 00:01:15;;;;;;;4.97;3.00;;;;;;;16.70;58.59;97053.06;5050119;28;20084;-80
2022/07/17 00:03:42;;;;;;;4.68;2.67;;;;;;;16.66;58.88;97054.91;5050499;28;20049;-80
2022/07/17 00:06:08;;;;;;;5.25;2.90;;;;;;;16.62;59.20;97048.47;5049858;28;20056;-81
2022/07/17 00:08:35;;;;;;;4.18;3.00;;;;;;;16.59;59.54;97041.69;5050391;28;20049;-80
2022/07/17 00:11:02;;;;;;;6.30;3.08;;;;;;;16.61;59.91;97052.38;5049812;28;20472;-79
2022/07/17 00:13:29;;;;;;;4.57;2.70;;;;;;;16.56;59.04;97055.34;5050378;28;20107;-80
2022/07/17 00:15:57;;;;;;;5.88;3.00;;;;;;;16.50;59.51;97059.47;5050194;28;20051;-80
2022/07/17 00:18:23;;;;;;;4.93;2.90;;;;;;;16.43;59.42;97052.53;5048854;28;20396;-80
2022/07/17 00:20:50;;;;;;;4.65;2.70;;;;;;;16.40;60.14;97058.72;5050139;28;20049;-80
2022/07/17 00:23:17;;;;;;;5.10;2.72;;;;;;;16.42;59.94;97053.69;5034498;28;20049;-81
2022/07/17 00:25:44;;;;;;;5.60;2.83;;;;;;;16.37;60.37;97055.84;5030228;28;20053;-79
2022/07/17 00:28:11;;;;;;;5.00;2.97;;;;;;;16.41;60.78;97060.34;5029762;28;20566;-79
2022/07/17 00:30:38;;;;;;;4.70;2.80;;;;;;;16.31;61.09;97049.75;5030275;28;20072;-80
2022/07/17 00:33:06;;;;;;;6.18;3.13;;;;;;;16.26;61.67;97049.97;5029993;28;20068;-80
2022/07/17 00:35:32;;;;;;;4.07;3.00;;;;;;;16.23;61.87;97047.88;5030436;28;20053;-80
2022/07/17 00:37:59;;;;;;;4.63;3.00;;;;;;;16.25;61.74;97045.63;5030377;28;20056;-81
2022/07/17 00:40:26;;;;;;;4.68;3.05;;;;;;;16.24;61.71;97055.00;5029872;28;20596;-80
2022/07/17 00:42:53;;;;;;;4.38;3.00;;;;;;;16.22;61.13;97051.78;5030349;28;20049;-80
2022/07/17 00:45:24;;;;;;;3.90;2.83;;;;;;;16.16;61.34;97048.44;5029662;28;20049;-80
2022/07/17 00:47:54;;;;;;;4.88;2.70;;;;;;;16.17;61.97;97054.72;5030148;28;20046;-79
2022/07/17 00:50:23;;;;;;;4.40;3.03;;;;;;;16.12;61.69;97052.19;5029369;28;20041;-80
2022/07/17 00:52:50;;;;;;;5.90;3.38;;;;;;;16.08;62.19;97052.09;5027653;28;20046;-80
2022/07/17 00:55:17;;;;;;;4.20;2.78;;;;;;;16.03;62.00;97055.03;5029051;28;20047;-81
2022/07/17 00:57:46;;;;;;;5.03;3.20;;;;;;;16.04;62.77;97050.34;5026947;28;20046;-80
2022/07/17 01:00:14;;;;;;;4.53;3.03;;;;;;;16.01;62.94;97051.00;5029659;28;20045;-81
2022/07/17 01:02:40;;;;;;;3.75;2.80;;;;;;;16.01;63.14;97045.50;5030080;28;20049;-80
2022/07/17 01:05:07;;;;;;;4.18;3.00;;;;;;;16.03;63.29;97044.03;5029370;28;20493;-80
2022/07/17 01:07:35;;;;;;;5.72;3.10;;;;;;;15.93;64.21;97051.88;5030048;28;20056;-80
2022/07/17 01:10:02;;;;;;;4.93;2.95;;;;;;;15.84;64.24;97041.75;5029499;28;20050;-79
2022/07/17 01:12:28;;;;;;;4.65;3.25;;;;;;;15.74;64.16;97041.34;5029979;28;20056;-79
2022/07/17 01:14:57;;;;;;;4.80;3.05;;;;;;;15.69;64.47;97049.78;5030169;28;20083;-80
2022/07/17 01:17:23;;;;;;;4.32;3.10;;;;;;;15.63;64.91;97040.94;5029471;28;20037;-80
2022/07/17 01:19:50;;;;;;;4.50;3.25;;;;;;;15.54;65.00;97042.91;5030240;28;20050;-80
2022/07/17 01:22:19;;;;;;;6.80;2.90;;;;;;;15.45;64.90;97045.72;5029135;28;20053;-80
2022/07/17 01:24:46;;;;;;;4.70;3.38;;;;;;;15.41;65.78;97044.78;5030008;28;20497;-80
2022/07/17 01:27:12;;;;;;;4.68;3.42;;;;;;;15.43;65.19;97048.00;5029292;28;20104;-80
2022/07/17 01:29:40;;;;;;;5.13;3.22;;;;;;;15.45;65.69;97051.19;5032261;28;20054;-79
2022/07/17 01:32:07;;;;;;;11.35;3.72;;;;;;;15.43;65.08;97049.94;5033036;28;20052;-79
2022/07/17 01:34:33;;;;;;;4.75;3.20;;;;;;;15.41;64.98;97053.03;5033453;28;20057;-80
2022/07/17 01:37:00;;;;;;;4.68;3.10;;;;;;;15.39;66.01;97047.84;5033181;28;20050;-79
2022/07/17 01:42:08;;;;;;;5.57;3.30;;;;;;;15.46;65.61;97057.50;5032193;28;20049;-80
2022/07/17 01:44:35;;;;;;;5.18;2.88;;;;;;;15.47;65.10;97054.44;5032983;28;20638;-80
2022/07/17 01:47:02;;;;;;;6.47;3.35;;;;;;;15.40;65.86;97052.22;5032604;28;20049;-79
2022/07/17 01:49:28;;;;;;;5.97;2.90;;;;;;;15.47;65.70;97059.13;5033141;28;20061;-81
2022/07/17 01:51:59;;;;;;;5.30;3.30;;;;;;;15.50;64.67;97052.94;5033288;28;20046;-80
2022/07/17 01:54:26;;;;;;;6.80;3.10;;;;;;;15.46;64.75;97060.25;5032671;28;20739;-80
2022/07/17 01:56:54;;;;;;;6.75;3.35;;;;;;;15.40;65.42;97052.22;5033061;28;20045;-80
2022/07/17 01:59:21;;;;;;;4.88;2.92;;;;;;;15.41;64.78;97055.75;5032420;28;20420;-79
2022/07/17 02:01:47;;;;;;;4.65;2.78;;;;;;;15.37;64.76;97054.81;5032461;28;20060;-80
2022/07/17 02:04:14;;;;;;;4.85;2.78;;;;;;;15.33;65.22;97043.69;5032293;28;20052;-79
2022/07/17 02:06:41;;;;;;;5.63;3.10;;;;;;;15.33;65.33;97046.44;5032692;28;20053;-80
2022/07/17 02:09:07;;;;;;;3.72;2.65;;;;;;;15.31;65.38;97047.91;5032256;28;20050;-80
2022/07/17 02:11:34;;;;;;;3.92;2.72;;;;;;;15.31;65.12;97043.22;5032693;28;20061;-80
2022/07/17 02:14:01;;;;;;;5.03;3.00;;;;;;;15.26;65.27;97045.34;5032542;28;20052;-80
2022/07/17 02:16:28;;;;;;;5.70;3.28;;;;;;;15.16;65.53;97048.47;5032169;28;20051;-80
2022/07/17 02:18:55;;;;;;;6.63;3.45;;;;;;;15.17;66.42;97045.41;5032482;28;20627;-80
2022/07/17 02:21:21;;;;;;;5.40;3.22;;;;;;;15.12;66.40;97045.59;5032005;28;20048;-79
2022/07/17 02:23:48;;;;;;;4.70;3.38;;;;;;;15.06;66.59;97055.13;5032285;28;20056;-80
2022/07/17 02:26:14;;;;;;;4.47;3.22;;;;;;;14.94;66.56;97046.81;5032293;28;20049;-79
2022/07/17 02:28:41;;;;;;;4.68;3.00;;;;;;;14.95;67.17;97048.41;5032461;28;20052;-80
2022/07/17 02:31:09;;;;;;;5.50;3.28;;;;;;;14.97;66.68;97052.41;5031764;28;20045;-83
2022/07/17 02:33:35;;;;;;;5.28;2.85;;;;;;;15.00;67.40;97050.97;5032291;28;20045;-78
2022/07/17 02:36:02;;;;;;;4.25;2.90;;;;;;;15.03;67.09;97044.81;5031769;28;20056;-81
2022/07/17 02:38:29;;;;;;;4.15;2.88;;;;;;;15.01;66.83;97052.56;5031950;28;20053;-81
2022/07/17 02:40:55;;;;;;;6.82;3.33;;;;;;;14.98;67.07;97050.47;5032253;28;20413;-80
2022/07/17 02:43:22;;;;;;;4.38;2.70;;;;;;;15.02;66.80;97054.19;5031519;28;20056;-79
2022/07/17 02:45:48;;;;;;;5.15;2.90;;;;;;;15.01;67.32;97047.09;5031859;28;20052;-79
2022/07/17 02:48:16;;;;;;;8.10;3.65;;;;;;;14.63;66.87;97042.41;5031403;28;20456;-80
2022/07/17 02:50:43;;;;;;;5.15;3.00;;;;;;;14.76;66.75;97044.13;5032005;28;20049;-80
2022/07/17 02:53:10;;;;;;;6.32;3.40;;;;;;;14.80;66.54;97042.34;5031419;28;20050;-78
2022/07/17 02:55:36;;;;;;;5.07;3.15;;;;;;;14.81;66.64;97048.63;5031867;28;20072;-80
2022/07/17 02:58:03;;;;;;;5.07;3.20;;;;;;;14.74;66.51;97054.63;5031750;28;20041;-79
2022/07/17 03:00:30;;;;;;;4.68;3.13;;;;;;;14.68;67.12;97064.16;5031457;28;20049;-80
2022/07/17 03:02:57;;;;;;;6.03;2.92;;;;;;;14.53;67.19;97057.25;5031821;28;20050;-80
2022/07/17 03:05:25;;;;;;;4.30;3.25;;;;;;;14.34;67.78;97057.56;5031404;28;20129;-80
2022/07/17 03:07:51;;;;;;;7.47;3.50;;;;;;;14.20;68.60;97050.66;5031770;28;20049;-81
2022/07/17 03:10:18;;;;;;;4.00;2.88;;;;;;;14.11;68.97;97053.44;5031253;28;20041;-80
2022/07/17 03:12:45;;;;;;;6.53;3.40;;;;;;;14.17;69.05;97054.06;5031593;28;20049;-80
2022/07/17 03:15:11;;;;;;;5.35;3.10;;;;;;;14.18;69.31;97053.72;5031014;28;20049;-80
2022/07/17 03:17:39;;;;;;;4.38;3.25;;;;;;;14.19;69.01;97046.31;5031451;28;20049;-80
2022/07/17 03:20:07;;;;;;;7.43;3.38;;;;;;;14.19;69.50;97049.84;5031057;28;20056;-80
2022/07/17 03:22:35;;;;;;;5.97;3.20;;;;;;;14.17;69.29;97046.66;5031150;28;20045;-80
2022/07/17 03:25:02;;;;;;;5.05;3.20;;;;;;;14.18;69.22;97042.78;5030964;28;20056;-80
2022/07/17 03:27:28;;;;;;;4.88;3.17;;;;;;;14.23;69.43;97050.81;5031137;28;20049;-80
2022/07/17 03:29:56;;;;;;;3.85;2.90;;;;;;;14.22;69.88;97054.69;5031182;28;20045;-80
2022/07/17 03:35:14;;;;;;;3.63;3.00;;;;;;;14.18;69.83;97048.25;5030557;28;20750;-78
2022/07/17 03:37:43;;;;;;;5.15;3.30;;;;;;;14.16;69.51;97058.75;5031185;28;20053;-79
2022/07/17 03:40:11;;;;;;;4.93;3.30;;;;;;;14.15;69.62;97059.88;5030765;28;20507;-78
2022/07/17 03:42:38;;;;;;;4.80;3.22;;;;;;;14.07;69.77;97052.47;5030911;28;20057;-78
2022/07/17 03:45:06;;;;;;;4.90;3.40;;;;;;;13.99;70.08;97056.00;5030694;28;20123;-79
2022/07/17 03:47:32;;;;;;;9.07;4.97;;;;;;;13.92;69.89;97050.22;5031109;28;20058;-79
2022/07/17 03:49:59;;;;;;;5.95;4.00;;;;;;;13.91;70.36;97054.06;5030761;28;20064;-79
2022/07/17 03:52:25;;;;;;;7.15;3.22;;;;;;;13.91;71.00;97059.56;5029979;28;20052;-80
2022/07/17 03:54:53;;;;;;;6.80;3.03;;;;;;;13.94;71.24;97057.00;5030920;28;20053;-79
2022/07/17 03:57:20;;;;;;;6.90;3.92;;;;;;;13.98;70.89;97065.34;5030160;28;20049;-78
2022/07/17 03:59:46;;;;;;;5.20;3.20;;;;;;;13.98;70.17;97062.59;5030753;28;20053;-79
2022/07/17 04:02:13;;;;;;;6.90;3.72;;;;;;;13.90;70.31;97064.22;5030151;28;20080;-79
2022/07/17 04:04:39;;;;;;;4.13;3.00;;;;;;;13.84;70.66;97060.84;5030695;28;20056;-79
2022/07/17 04:07:06;;;;;;;4.55;3.10;;;;;;;13.81;70.72;97066.94;5029896;28;20710;-80
2022/07/17 04:09:32;;;;;;;6.57;3.20;;;;;;;13.83;70.52;97069.34;5030982;28;20049;-79
2022/07/17 04:12:00;;;;;;;6.00;3.30;;;;;;;13.86;70.85;97068.72;5030542;28;20049;-79
2022/07/17 04:14:27;;;;;;;5.53;3.42;;;;;;;13.93;71.14;97065.50;5030355;28;20121;-79
2022/07/17 04:16:53;;;;;;;4.93;3.70;;;;;;;13.97;71.28;97066.47;5030440;28;20057;-79
2022/07/17 04:19:20;;;;;;;5.80;3.70;;;;;;;14.01;71.66;97070.19;5030006;28;20493;-79
2022/07/17 04:21:47;;;;;;;5.60;3.50;;;;;;;14.06;71.81;97067.28;5030518;28;20061;-79
2022/07/17 04:24:13;;;;;;;4.18;2.92;;;;;;;14.13;72.41;97066.78;5029998;28;20042;-78
2022/07/17 04:26:40;;;;;;;6.30;3.83;;;;;;;14.18;71.39;97059.22;5030510;28;20042;-81
2022/07/17 04:29:08;;;;;;;4.95;3.33;;;;;;;14.22;71.27;97059.38;5030194;28;20038;-79
2022/07/17 04:31:35;;;;;;;3.92;3.08;;;;;;;14.24;71.14;97074.34;5030651;28;20045;-79
2022/07/17 04:34:01;;;;;;;4.93;2.90;;;;;;;14.25;70.96;97073.25;5029824;28;20049;-82
2022/07/17 04:36:28;;;;;;;4.18;3.20;;;;;;;14.33;70.96;97075.16;5030460;28;20053;-81
2022/07/17 04:38:55;;;;;;;5.45;3.67;;;;;;;14.41;70.68;97072.72;5030214;28;20042;-80
2022/07/17 04:41:21;;;;;;;7.10;3.30;;;;;;;14.38;71.48;97068.69;5029775;28;20052;-78
2022/07/17 04:43:48;;;;;;;6.50;3.15;;;;;;;14.30;71.99;97070.34;5030284;28;20061;-81
2022/07/17 04:46:15;;;;;;;3.88;3.20;;;;;;;14.29;72.56;97065.97;5029808;28;20056;-81
2022/07/17 04:48:42;;;;;;;4.53;3.42;;;;;;;14.28;71.94;97064.34;5030106;28;20045;-81
2022/07/17 04:51:09;;;;;;;5.72;3.30;;;;;;;14.26;72.13;97060.34;5029834;28;20053;-82
2022/07/17 04:53:36;;;;;;;5.72;3.60;;;;;;;14.27;72.25;97061.94;5030250;28;20050;-82
2022/07/17 04:56:03;;;;;;;6.15;3.58;;;;;;;14.29;72.56;97063.22;5028206;28;20559;-81
2022/07/17 04:58:30;;;;;;;6.82;3.65;;;;;;;14.32;72.84;97070.81;5050065;28;20053;-78
2022/07/17 05:00:56;;;;;;;6.28;3.50;;;;;;;14.34;73.47;97068.53;5049750;28;20045;-80
2022/07/17 05:03:24;;;;;;;6.40;3.83;;;;;;;14.33;73.45;97072.41;5049863;28;20041;-78
2022/07/17 05:05:51;;;;;;;4.75;4.00;;;;;;;14.38;73.26;97073.38;5054026;28;20045;-79
2022/07/17 05:08:18;;;;;;;5.00;3.70;;;;;;;14.45;72.87;97073.69;5053312;28;20048;-81
2022/07/17 05:10:45;;;;;;;4.38;3.63;;;;;;;14.54;72.27;97066.28;5053647;28;20048;-79
2022/07/17 05:13:12;;;;;;;6.63;4.03;;;;;;;14.64;71.83;97073.34;5053620;28;20068;-79
2022/07/17 05:15:38;;;;;;;5.80;3.67;;;;;;;14.72;71.50;97078.81;5053645;28;20504;-80
2022/07/17 05:18:05;;;;;;;6.57;3.80;;;;;;;14.83;70.90;97069.09;5053153;28;20048;-79
2022/07/17 05:20:33;;;;;;;5.15;3.83;;;;;;;14.94;71.35;97068.75;5053269;28;20053;-79
2022/07/17 05:23:00;;;;;;;5.47;4.13;;;;;;;15.06;71.02;97071.59;5053643;28;20052;-79
2022/07/17 05:25:26;;;;;;;4.82;3.80;;;;;;;15.08;71.13;97075.59;5053081;28;20037;-81
2022/07/17 05:27:53;;;;;;;6.43;4.10;;;;;;;15.15;71.02;97072.38;5052575;28;20052;-78
2022/07/17 05:30:20;;;;;;;4.95;4.00;;;;;;;15.27;70.46;97077.94;5052938;28;20045;-79
2022/07/17 05:32:46;;;;;;;7.10;3.75;;;;;;;15.31;70.35;97072.59;5053481;28;20041;-79
2022/07/17 05:35:13;;;;;;;5.15;3.50;;;;;;;15.41;70.06;97072.22;5053250;28;20052;-79
2022/07/17 05:37:40;;;;;;;6.25;4.05;;;;;;;15.52;69.82;97075.41;5053339;28;20052;-79
2022/07/17 05:40:09;;;;;;;7.32;4.80;;;;;;;15.55;69.34;97074.72;5052688;28;20049;-79
2022/07/17 05:42:35;;;;;;;6.28;3.60;;;;;;;15.63;68.87;97069.22;5053388;28;20056;-78
2022/07/17 05:45:02;;;;;;;5.00;3.80;;;;;;;15.72;68.06;97071.09;5052726;28;20408;-78
2022/07/17 05:47:29;;;;;;;5.35;3.63;;;;;;;15.81;67.66;97072.63;5052795;28;20052;-78
2022/07/17 05:49:55;;;;;;;4.00;3.30;;;;;;;15.91;67.01;97074.97;5053195;28;20048;-79
2022/07/17 05:52:22;;;;;;;4.93;2.83;;;;;;;15.84;61.46;97077.47;5052493;28;20057;-79
2022/07/17 05:54:50;;;;;;;9.63;2.85;;;;;;;15.87;58.88;97076.00;5053172;28;20055;-80
2022/07/17 05:57:17;;;;;;;4.50;2.70;;;;;;;15.96;57.69;97075.91;5041494;28;20061;-79
2022/07/17 05:59:43;;;;;;;4.13;2.70;;;;;;;16.02;58.02;97085.56;5033011;28;20053;-78
2022/07/17 06:02:10;;;;;;;5.80;2.45;;;;;;;16.26;59.27;97080.19;5032548;28;20045;-78
2022/07/17 06:04:36;;;;;;;5.07;2.60;;;;;;;16.16;56.67;97075.09;5033223;28;20049;-79
2022/07/17 06:07:03;;;;;;;6.60;2.45;;;;;;;16.21;56.97;97080.41;5032729;28;20045;-78
2022/07/17 06:09:29;;;;;;;4.28;2.78;;;;;;;16.36;56.96;97079.78;5032858;28;20054;-80
2022/07/17 06:11:57;;;;;;;4.85;2.53;;;;;;;16.55;57.54;97083.97;5032849;28;20053;-79
2022/07/17 06:14:24;;;;;;;4.63;2.55;;;;;;;16.47;56.00;97084.84;5031889;28;20515;-80
2022/07/17 06:16:51;;;;;;;3.50;2.55;;;;;;;16.58;56.10;97088.78;5032775;28;20088;-79
2022/07/17 06:19:17;;;;;;;4.22;2.67;;;;;;;16.63;55.86;97085.81;5032425;28;20041;-79
2022/07/17 06:21:44;;;;;;;6.55;3.05;;;;;;;16.76;56.16;97090.25;5032988;28;20062;-80
2022/07/17 06:24:10;;;;;;;5.60;2.75;;;;;;;16.88;56.16;97090.28;5032137;28;20053;-79
2022/07/17 06:26:37;;;;;;;3.67;2.50;;;;;;;17.08;57.64;97093.31;5037432;28;20056;-78
2022/07/17 06:29:05;;;;;;;4.63;2.58;;;;;;;17.10;57.58;97088.25;5052495;28;20072;-79
2022/07/17 06:31:31;;;;;;;4.88;2.80;;;;;;;17.08;56.67;97096.06;5052715;28;20041;-79
2022/07/17 06:33:58;;;;;;;5.15;2.85;;;;;;;17.33;57.42;97094.94;5052349;28;20061;-78
2022/07/17 06:36:25;;;;;;;4.90;3.15;;;;;;;17.45;56.90;97096.88;5052081;28;20040;-79
2022/07/17 06:38:51;;;;;;;3.25;2.85;;;;;;;17.58;57.48;97094.91;5052359;28;20052;-78
2022/07/17 06:41:18;;;;;;;3.45;2.35;;;;;;;17.67;58.54;97098.34;5051649;28;20040;-78
2022/07/17 06:43:44;;;;;;;4.22;2.58;;;;;;;17.72;58.03;97104.44;5052463;28;20052;-79
2022/07/17 06:46:12;;;;;;;4.60;2.92;;;;;;;17.55;55.94;97103.88;5051633;28;20052;-79
2022/07/17 06:48:39;;;;;;;5.28;3.58;;;;;;;17.71;56.35;97102.03;5052081;28;20049;-79
2022/07/17 06:51:06;;;;;;;5.78;3.38;;;;;;;17.80;55.67;97107.41;5051670;28;20052;-79
2022/07/17 06:53:32;;;;;;;5.32;3.63;;;;;;;17.82;55.08;97108.69;5051949;28;20064;-79
2022/07/17 06:55:59;;;;;;;7.95;2.78;;;;;;;17.92;54.91;97105.47;5051113;28;20052;-78
2022/07/17 06:58:25;;;;;;;5.68;3.17;;;;;;;18.02;53.86;97112.44;5011803;28;20038;-78
2022/07/17 07:00:52;;;;;;;5.65;2.85;;;;;;;18.05;53.59;97108.97;5012124;28;20050;-80
2022/07/17 07:03:20;;;;;;;4.00;2.72;;;;;;;18.20;53.25;97101.94;5011411;28;20045;-78
2022/07/17 07:05:47;;;;;;;5.38;2.88;;;;;;;18.40;54.25;97098.19;5011973;28;20053;-78
2022/07/17 07:08:13;;;;;;;4.70;2.40;;;;;;;18.57;54.63;97104.56;5011430;28;20053;-79
2022/07/17 07:10:40;;;;;;;4.55;2.75;;;;;;;18.64;53.24;97097.31;5012221;28;20054;-79
2022/07/17 07:13:06;;;;;;;5.60;2.60;;;;;;;18.93;55.52;97101.66;5011186;28;20060;-78
2022/07/17 07:15:33;;;;;;;4.57;2.60;;;;;;;19.09;53.90;97101.66;5011783;28;20057;-79
2022/07/17 07:17:59;;;;;;;6.60;2.28;;;;;;;19.17;51.82;97097.13;5011342;28;20046;-80
2022/07/17 07:20:27;;;;;;;4.80;2.10;;;;;;;19.36;51.59;97099.97;5010917;28;20068;-78
2022/07/17 07:22:54;;;;;;;3.28;2.30;;;;;;;19.37;48.82;97101.59;5011656;28;20049;-79
2022/07/17 07:25:21;;;;;;;4.90;2.22;;;;;;;19.64;51.27;97101.88;5010806;28;20436;-79
2022/07/17 07:27:48;;;;;;;4.22;2.28;;;;;;;19.85;50.07;97099.59;5040618;28;20137;-77
2022/07/17 07:30:14;;;;;;;3.28;2.00;;;;;;;19.85;49.42;97110.66;5050689;28;20057;-78
2022/07/17 07:32:41;;;;;;;5.78;2.35;;;;;;;19.96;48.63;97106.16;5050926;28;20056;-78
2022/07/17 07:35:08;;;;;;;5.68;2.42;;;;;;;20.00;47.85;97106.25;5050411;28;20127;-78
2022/07/17 07:37:37;;;;;;;3.03;2.05;;;;;;;20.23;49.96;97109.09;5050988;28;20052;-78
2022/07/17 07:40:04;;;;;;;3.17;1.90;;;;;;;20.33;47.75;97111.31;5050433;28;20526;-78
2022/07/17 07:42:31;;;;;;;3.33;2.03;;;;;;;20.45;47.89;97110.34;5050765;28;20077;-78
2022/07/17 07:44:57;;;;;;;3.03;1.95;;;;;;;20.54;48.83;97111.78;5050610;28;20044;-78
2022/07/17 07:47:24;;;;;;;4.03;2.15;;;;;;;20.69;48.19;97112.06;5049965;28;20041;-78
2022/07/17 07:49:51;;;;;;;4.20;1.90;;;;;;;20.84;46.56;97113.94;5050683;28;20052;-78
2022/07/17 07:52:17;;;;;;;4.45;2.20;;;;;;;20.98;46.77;97119.72;5050191;28;20080;-78
2022/07/17 07:54:45;;;;;;;3.28;1.83;;;;;;;21.15;46.80;97109.38;5050594;28;20048;-78
2022/07/17 07:57:12;;;;;;;2.75;1.90;;;;;;;21.31;46.63;97115.63;5049159;28;20052;-78
2022/07/17 07:59:39;;;;;;;4.47;2.08;;;;;;;21.37;46.36;97116.91;5050582;28;20048;-78
2022/07/17 08:02:05;;;;;;;5.63;2.45;;;;;;;21.46;48.15;97108.34;5050102;28;20043;-78
2022/07/17 08:04:32;;;;;;;3.70;2.10;;;;;;;21.57;45.59;97114.84;5050650;28;20049;-79
2022/07/17 08:06:59;;;;;;;5.47;2.70;;;;;;;21.75;44.93;97115.94;5050514;28;20049;-78
2022/07/17 08:09:25;;;;;;;4.57;1.90;;;;;;;21.96;45.31;97112.66;5050175;28;20045;-78
2022/07/17 08:11:53;;;;;;;4.53;2.10;;;;;;;22.39;45.96;97113.28;5050394;28;20661;-78
2022/07/17 08:14:20;;;;;;;3.10;2.10;;;;;;;23.13;42.34;97116.16;5049973;28;20045;-79
2022/07/17 08:16:46;;;;;;;3.75;1.83;;;;;;;23.58;40.48;97116.97;5049910;28;20051;-78
2022/07/17 08:19:13;;;;;;;3.35;1.73;;;;;;;24.21;39.37;97115.03;5049758;28;20064;-77
2022/07/17 08:21:40;;;;;;;4.30;1.92;;;;;;;24.41;37.22;97115.56;5049670;28;20044;-78
2022/07/17 08:24:07;;;;;;;5.00;1.98;;;;;;;24.90;37.83;97116.94;5049795;28;20056;-79
2022/07/17 08:26:33;;;;;;;2.58;1.80;;;;;;;25.29;39.17;97121.88;5049368;28;20132;-78
2022/07/17 08:29:01;;;;;;;4.28;1.98;;;;;;;25.44;38.95;97120.69;5050205;28;20067;-78
2022/07/17 08:31:28;;;;;;;2.78;1.60;;;;;;;25.36;36.68;97130.22;5049755;28;20048;-78
2022/07/17 08:33:54;;;;;;;5.65;1.73;;;;;;;25.29;36.04;97133.00;5049957;28;20053;-79
2022/07/17 08:36:21;;;;;;;4.53;2.03;;;;;;;25.21;36.88;97135.78;5049607;28;20045;-78
2022/07/17 08:38:48;;;;;;;3.45;1.70;;;;;;;25.43;36.74;97136.63;5053035;28;20140;-78
2022/07/17 08:41:16;;;;;;;2.70;1.90;;;;;;;25.52;35.95;97133.44;5053532;28;20049;-78
2022/07/17 08:43:43;;;;;;;4.75;1.70;;;;;;;25.41;35.07;97132.63;5054061;28;20554;-78
2022/07/17 08:46:12;;;;;;;3.15;1.60;;;;;;;25.48;37.31;97129.84;5053575;28;20045;-78
2022/07/17 08:48:41;;;;;;;2.97;1.70;;;;;;;25.41;35.61;97138.19;5053897;28;20527;-78
2022/07/17 08:51:08;;;;;;;2.70;1.63;;;;;;;25.61;36.32;97131.03;5053379;28;20522;-78
2022/07/17 08:53:35;;;;;;;2.65;1.70;;;;;;;25.81;34.40;97127.91;5053968;28;20053;-78
2022/07/17 08:56:01;;;;;;;3.50;1.90;;;;;;;25.58;33.71;97131.03;5052774;28;20052;-79
2022/07/17 08:58:28;;;;;;;2.97;1.88;;;;;;;25.58;34.50;97120.69;5053739;28;20488;-78
2022/07/17 09:00:54;;;;;;;5.10;1.80;;;;;;;25.46;34.04;97130.22;5053624;28;20053;-79
2022/07/17 09:03:23;;;;;;;6.22;1.80;;;;;;;25.67;32.56;97123.88;5053682;28;20055;-79
2022/07/17 09:05:50;;;;;;;2.55;1.58;;;;;;;25.56;33.72;97125.88;5053770;28;20420;-79
2022/07/17 09:08:19;;;;;;;3.83;1.73;;;;;;;25.45;35.54;97123.06;5053002;28;20412;-79
2022/07/17 09:10:47;;;;;;;3.85;1.50;;;;;;;25.69;36.79;97132.66;5053892;28;20088;-78
2022/07/17 09:13:16;;;;;;;5.85;2.08;;;;;;;25.71;33.53;97127.47;5053253;28;20052;-79
2022/07/17 09:15:42;;;;;;;2.45;1.65;;;;;;;25.93;34.42;97131.06;5053536;28;20045;-80
2022/07/17 09:18:09;;;;;;;4.03;1.77;;;;;;;25.93;32.49;97130.28;5053069;28;20500;-78
2022/07/17 09:20:39;;;;;;;5.13;1.85;;;;;;;25.92;33.92;97123.09;5053326;28;20061;-82
2022/07/17 09:23:06;;;;;;;5.63;1.83;;;;;;;25.91;34.04;97127.88;5052904;28;20048;-79
2022/07/17 09:25:34;;;;;;;4.22;1.77;;;;;;;25.89;32.79;97124.69;5053166;28;20056;-81
2022/07/17 09:28:03;;;;;;;3.33;1.75;;;;;;;25.86;32.92;97119.13;5052968;28;20518;-80
2022/07/17 09:30:29;;;;;;;4.88;2.42;;;;;;;25.91;34.54;97127.88;5053226;28;20063;-77
2022/07/17 09:32:56;;;;;;;2.10;1.50;;;;;;;26.08;33.70;97126.25;5053060;28;20056;-80
2022/07/17 09:35:23;;;;;;;3.33;1.70;;;;;;;26.15;34.14;97123.44;5052707;28;20071;-78
2022/07/17 09:37:54;;;;;;;3.30;1.73;;;;;;;26.25;33.44;97117.03;5053222;28;20142;-79
2022/07/17 09:43:08;;;;;;;3.00;1.80;;;;;;;26.42;32.67;97117.47;5052402;28;20522;-79
2022/07/17 09:45:36;;;;;;;4.55;1.90;;;;;;;26.47;33.42;97117.03;5052879;28;20107;-79
2022/07/17 09:48:03;;;;;;;2.75;1.75;;;;;;;26.56;33.86;97113.81;5052208;28;20056;-79
2022/07/17 09:50:30;;;;;;;4.03;1.83;;;;;;;26.65;32.26;97126.13;5051812;28;20052;-79
2022/07/17 09:52:58;;;;;;;3.20;1.60;;;;;;;26.54;30.64;97131.75;5052635;28;20068;-79
2022/07/17 09:55:29;;;;;;;4.20;1.67;;;;;;;26.41;31.88;97130.56;5052079;28;20041;-79
2022/07/17 09:57:57;;;;;;;2.20;1.75;;;;;;;26.27;32.04;97127.84;5051690;28;20060;-79
2022/07/17 10:00:23;;;;;;;3.22;1.70;;;;;;;26.37;32.40;97132.59;5052299;28;20041;-81
2022/07/17 10:02:50;;;;;;;4.53;1.80;;;;;;;25.99;33.31;97126.66;5052300;28;20049;-80
2022/07/17 10:05:17;;;;;;;3.60;1.80;;;;;;;26.24;33.51;97126.63;5051811;28;20049;-79
2022/07/17 10:07:45;;;;;;;3.22;1.65;;;;;;;26.13;33.10;97134.22;5052595;28;20041;-79
2022/07/17 10:10:15;;;;;;;4.88;1.75;;;;;;;26.31;34.63;97133.38;5051827;28;20095;-79
2022/07/17 10:12:44;;;;;;;3.70;1.73;;;;;;;26.52;31.03;97133.38;5052622;28;20056;-80
2022/07/17 10:15:12;;;;;;;2.72;1.42;;;;;;;26.48;33.13;97138.19;5052471;28;20118;-79
2022/07/17 10:17:39;;;;;;;4.18;1.65;;;;;;;26.33;33.20;97131.00;5052327;28;20070;-79
2022/07/17 10:20:07;;;;;;;3.42;1.70;;;;;;;26.25;33.51;97133.81;5051519;28;20711;-82
2022/07/17 10:22:41;;;;;;;2.40;1.70;;;;;;;26.38;33.13;97138.97;5052060;28;20045;-80
2022/07/17 10:25:12;;;;;;;4.72;1.67;;;;;;;26.36;29.85;97132.97;5051842;28;20048;-79
2022/07/17 10:27:47;;;;;;;3.88;1.75;;;;;;;26.25;29.54;97131.00;5051832;28;20049;-80
2022/07/17 10:30:19;;;;;;;2.33;1.40;;;;;;;26.10;30.55;97135.06;5052068;28;20052;-80
2022/07/17 10:32:52;;;;;;;3.20;1.65;;;;;;;26.17;31.61;97140.63;5052287;28;20045;-81
2022/07/17 10:35:19;;;;;;;3.20;1.52;;;;;;;26.31;29.18;97128.63;5051879;28;20041;-80
2022/07/17 10:37:46;;;;;;;3.17;1.67;;;;;;;26.28;30.56;97130.22;5051804;28;20048;-80
2022/07/17 10:40:17;;;;;;;4.13;1.80;;;;;;;26.40;32.46;97130.97;5051552;28;20431;-80
2022/07/17 10:42:51;;;;;;;4.55;1.95;;;;;;;26.42;31.54;97128.63;5052052;28;20067;-81
2022/07/17 10:45:23;;;;;;;3.63;1.85;;;;;;;26.55;30.47;97129.75;5051261;28;20048;-79
2022/07/17 10:47:56;;;;;;;4.40;1.65;;;;;;;26.31;30.07;97133.38;5051719;28;20057;-80
2022/07/17 10:50:25;;;;;;;4.15;2.05;;;;;;;26.29;30.76;97131.81;5051212;28;20492;-80
2022/07/17 10:53:04;;;;;;;2.55;1.73;;;;;;;26.15;30.97;97123.44;5051534;28;20052;-80
2022/07/17 10:55:31;;;;;;;2.83;1.75;;;;;;;26.35;31.76;97128.59;5051447;28;20397;-80
2022/07/17 10:57:59;;;;;;;3.25;1.70;;;;;;;26.44;33.27;97120.63;5050563;28;20071;-80
2022/07/17 11:00:25;;;;;;;3.78;1.70;;;;;;;26.52;32.01;97116.63;5050703;28;20045;-80
2022/07/17 11:02:52;;;;;;;3.70;1.60;;;;;;;26.52;31.98;97113.84;5050235;28;20053;-80
2022/07/17 11:05:19;;;;;;;2.58;1.77;;;;;;;26.68;31.31;97116.16;5050749;28;20056;-80
2022/07/17 11:07:51;;;;;;;3.90;1.65;;;;;;;26.76;31.80;97110.13;5051160;28;20049;-80
2022/07/17 11:10:18;;;;;;;3.53;1.67;;;;;;;26.73;31.32;97107.38;5050764;28;20435;-81
2022/07/17 11:12:45;;;;;;;2.08;1.50;;;;;;;26.71;30.99;97104.97;5051369;28;20045;-80
2022/07/17 11:15:13;;;;;;;1.60;1.50;;;;;;;26.92;30.42;97106.06;5050506;28;20037;-80
2022/07/17 11:17:45;;;;;;;3.22;1.73;;;;;;;26.69;29.77;97101.78;5050723;28;20053;-80
2022/07/17 11:20:12;;;;;;;2.75;1.63;;;;;;;26.39;30.62;97098.69;5050559;28;20656;-82
2022/07/17 11:22:41;;;;;;;3.20;1.48;;;;;;;26.62;32.36;97096.22;5049805;28;20045;-79
2022/07/17 11:25:09;;;;;;;3.65;2.20;;;;;;;26.75;32.11;97090.97;5050450;28;20048;-80
2022/07/17 11:27:38;;;;;;;2.28;1.50;;;;;;;26.82;29.43;97090.13;5050809;28;20095;-79
2022/07/17 11:30:05;;;;;;;4.50;1.70;;;;;;;26.56;31.64;97083.88;5050308;28;20061;-80
2022/07/17 11:32:35;;;;;;;2.85;1.90;;;;;;;26.17;28.74;97084.78;5050805;28;20045;-80
2022/07/17 11:35:02;;;;;;;3.28;1.50;;;;;;;26.21;29.55;97085.56;5050455;28;20045;-80
2022/07/17 11:37:30;;;;;;;3.38;1.67;;;;;;;26.31;29.65;97077.56;5050752;28;20053;-80
2022/07/17 11:39:57;;;;;;;3.65;1.75;;;;;;;26.40;32.08;97075.13;5050687;28;20048;-78
2022/07/17 11:42:25;;;;;;;2.08;1.50;;;;;;;26.57;31.72;97073.50;5050220;28;20040;-80